createdAt,value
2019-06-10T00:02:10.923Z,174.25
2019-06-10T00:06:21.242Z,182.78
2019-06-10T00:10:31.496Z,180.25
2019-06-10T00:14:42.030Z,177.97
2019-06-10T00:18:52.379Z,179.57
2019-06-10T00:23:05.156Z,177.70
2019-06-10T00:27:14.573Z,181.23
2019-06-10T00:31:24.926Z,178.78
2019-06-10T00:35:35.089Z,181.97
2019-06-10T00:39:45.365Z,183.40
2019-06-10T00:43:55.599Z,179.95
2019-06-10T00:48:17.316Z,182.43
2019-06-10T00:52:17.706Z,184.93
2019-06-10T00:56:27.913Z,178.90
2019-06-10T01:00:41.201Z,191.87
2019-06-10T01:04:52.067Z,183.83
2019-06-10T01:09:02.578Z,179.17
2019-06-10T01:13:15.086Z,182.07
2019-06-10T01:17:24.773Z,179.55
2019-06-10T01:21:35.135Z,180.57
2019-06-10T01:25:45.517Z,178.90
2019-06-10T01:29:55.778Z,176.50
2019-06-10T01:34:07.206Z,177.60
2019-06-10T01:38:18.396Z,180.75
2019-06-10T01:42:30.660Z,178.13
2019-06-10T01:46:41.144Z,180.93
2019-06-10T01:50:51.498Z,179.10
2019-06-10T01:55:01.722Z,181.57
2019-06-10T01:59:14.172Z,186.80
2019-06-10T02:03:24.748Z,186.30
2019-06-10T02:07:35.081Z,181.00
2019-06-10T02:11:45.444Z,182.07
2019-06-10T02:15:55.688Z,181.70
2019-06-10T02:20:07.325Z,183.03
2019-06-10T02:24:18.796Z,188.40
2019-06-10T02:28:31.714Z,191.90
2019-06-10T02:32:42.862Z,193.60
2019-06-10T02:36:54.271Z,177.67
2019-06-10T02:41:05.143Z,179.73
2019-06-10T02:45:19.691Z,179.67
2019-06-10T02:49:46.978Z,179.47
2019-06-10T02:53:43.035Z,178.77
2019-06-10T02:57:53.268Z,179.23
2019-06-10T03:02:03.639Z,176.83
2019-06-10T03:06:15.034Z,181.17
2019-06-10T03:10:30.921Z,185.13
2019-06-10T03:14:37.653Z,182.77
2019-06-10T03:18:48.010Z,182.30
2019-06-10T03:22:58.344Z,194.83
2019-06-10T03:27:08.683Z,184.93
2019-06-10T03:31:22.276Z,180.00
2019-06-10T03:35:32.955Z,181.93
2019-06-10T03:39:42.877Z,184.30
2019-06-10T03:43:53.307Z,181.53
2019-06-10T03:48:03.836Z,176.50
2019-06-10T03:52:14.082Z,177.00
2019-06-10T03:56:25.429Z,181.53
2019-06-10T04:00:37.190Z,179.57
2019-06-10T04:04:48.285Z,180.07
2019-06-10T04:08:58.520Z,180.07
2019-06-10T04:13:08.977Z,180.53
2019-06-10T04:17:19.571Z,185.77
2019-06-10T04:21:29.900Z,188.07
2019-06-10T04:25:42.864Z,187.10
2019-06-10T04:29:53.153Z,184.00
2019-06-10T04:34:03.419Z,186.80
2019-06-10T04:38:13.741Z,183.33
2019-06-10T04:42:25.714Z,185.90
2019-06-10T04:46:35.883Z,185.37
2019-06-10T04:50:46.558Z,184.93
2019-06-10T04:54:56.824Z,182.77
2019-06-10T04:59:07.055Z,181.18
2019-06-10T05:03:17.280Z,179.20
2019-06-10T05:07:32.016Z,180.97
2019-06-10T05:11:39.396Z,184.47
2019-06-10T05:15:49.625Z,182.03
2019-06-10T05:20:02.299Z,179.23
2019-06-10T05:24:12.544Z,183.30
2019-06-10T05:28:24.464Z,182.55
2019-06-10T05:32:34.863Z,183.35
2019-06-10T05:36:45.123Z,180.05
2019-06-10T05:40:55.367Z,180.18
2019-06-10T05:45:07.362Z,178.85
2019-06-10T05:49:17.687Z,182.00
2019-06-10T05:53:29.163Z,182.57
2019-06-10T05:57:39.516Z,183.72
2019-06-10T06:01:49.866Z,184.72
2019-06-10T06:06:00.259Z,184.85
2019-06-10T06:10:13.034Z,185.73
2019-06-10T06:14:23.045Z,183.27
2019-06-10T06:18:36.107Z,185.65
2019-06-10T06:22:45.296Z,184.45
2019-06-10T06:26:55.536Z,183.18
2019-06-10T06:31:05.791Z,189.93
2019-06-10T06:35:16.365Z,189.07
2019-06-10T06:39:27.057Z,188.15
2019-06-10T06:43:41.949Z,184.70
2019-06-10T06:47:49.289Z,184.35
2019-06-10T06:51:59.661Z,185.70
2019-06-10T06:56:12.630Z,188.15
2019-06-10T07:00:54.324Z,188.77
2019-06-10T07:04:49.061Z,184.87
2019-06-10T07:09:05.461Z,187.75
2019-06-10T07:13:13.200Z,190.00
2019-06-10T07:17:23.509Z,188.60
2019-06-10T07:21:40.417Z,186.43
2019-06-10T07:25:47.416Z,183.87
2019-06-10T07:29:57.633Z,188.57
2019-06-10T07:34:08.041Z,186.30
2019-06-10T07:38:18.430Z,189.37
2019-06-10T07:42:28.985Z,189.05
2019-06-10T07:46:39.400Z,186.73
2019-06-10T07:50:49.932Z,187.00
2019-06-10T07:55:02.449Z,189.10
2019-06-10T07:59:12.986Z,186.52
2019-06-10T08:03:23.485Z,186.92
2019-06-10T08:07:35.133Z,191.65
2019-06-10T08:11:47.344Z,187.92
2019-06-10T08:15:57.425Z,189.60
2019-06-10T08:20:09.935Z,189.82
2019-06-10T08:24:22.039Z,191.10
2019-06-10T08:28:33.161Z,189.57
2019-06-10T08:32:46.792Z,193.00
2019-06-10T08:36:55.568Z,188.50
2019-06-10T08:41:05.869Z,187.53
2019-06-10T08:45:16.309Z,195.13
2019-06-10T08:49:26.635Z,191.43
2019-06-10T08:53:37.399Z,196.25
2019-06-10T08:57:50.958Z,188.82
2019-06-10T09:01:59.520Z,190.38
2019-06-10T09:06:09.843Z,191.73
2019-06-10T09:10:22.726Z,198.23
2019-06-10T09:14:32.750Z,193.72
2019-06-10T09:18:46.323Z,199.40
2019-06-10T09:23:16.762Z,195.55
2019-06-10T09:27:06.981Z,193.25
2019-06-10T09:31:17.336Z,194.97
2019-06-10T09:35:27.664Z,193.70
2019-06-10T09:39:37.925Z,195.57
2019-06-10T09:43:51.958Z,188.80
2019-06-10T09:48:03.851Z,191.10
2019-06-10T09:52:13.508Z,191.70
2019-06-10T09:56:23.996Z,194.77
2019-06-10T10:00:47.328Z,203.83
2019-06-10T10:04:58.240Z,194.30
2019-06-10T10:09:08.615Z,189.70
2019-06-10T10:13:22.395Z,195.45
2019-06-10T10:17:33.416Z,192.47
2019-06-10T10:21:46.886Z,191.45
2019-06-10T10:25:57.183Z,189.30
2019-06-10T10:30:08.865Z,189.60
2019-06-10T10:34:19.126Z,192.62
2019-06-10T10:38:30.072Z,193.57
2019-06-10T10:42:47.643Z,192.13
2019-06-10T10:46:54.397Z,189.97
2019-06-10T10:51:04.699Z,195.57
2019-06-10T10:55:16.647Z,192.73
2019-06-10T10:59:26.980Z,194.07
2019-06-10T11:03:37.323Z,186.77
2019-06-10T11:07:47.758Z,188.85
2019-06-10T11:12:02.789Z,192.87
2019-06-10T11:16:12.593Z,192.72
2019-06-10T11:20:22.922Z,195.00
2019-06-10T11:24:40.631Z,192.20
2019-06-10T11:28:45.286Z,189.28
2019-06-10T11:32:57.859Z,193.13
2019-06-10T11:37:08.231Z,192.07
2019-06-10T11:41:18.572Z,191.18
2019-06-10T11:45:29.549Z,196.12
2019-06-10T11:49:39.896Z,193.10
2019-06-10T11:53:52.912Z,194.47
2019-06-10T11:58:02.273Z,194.95
2019-06-10T12:02:13.198Z,195.97
2019-06-10T12:06:23.735Z,193.70
2019-06-10T12:10:34.115Z,192.72
2019-06-10T12:14:44.354Z,193.52
2019-06-10T12:18:57.000Z,189.95
2019-06-10T12:23:06.770Z,196.72
2019-06-10T12:27:17.064Z,193.22
2019-06-10T12:31:27.371Z,190.35
2019-06-10T12:35:37.574Z,192.60
2019-06-10T12:39:47.853Z,192.45
2019-06-10T12:43:58.460Z,190.15
2019-06-10T12:48:08.728Z,192.13
2019-06-10T12:52:18.970Z,190.82
2019-06-10T12:56:29.267Z,188.45
2019-06-10T13:00:49.247Z,191.37
2019-06-10T13:04:59.719Z,190.82
2019-06-10T13:09:12.750Z,189.95
2019-06-10T13:13:22.664Z,191.62
2019-06-10T13:17:33.494Z,200.18
2019-06-10T13:21:44.190Z,195.47
2019-06-10T13:25:58.698Z,198.23
2019-06-10T13:30:08.355Z,195.55
2019-06-10T13:34:18.769Z,200.00
2019-06-10T13:38:29.135Z,191.03
2019-06-10T13:42:39.467Z,191.10
2019-06-10T13:46:49.714Z,193.87
2019-06-10T13:51:01.485Z,194.72
2019-06-10T13:55:13.624Z,191.47
2019-06-10T13:59:24.973Z,190.97
2019-06-10T14:03:35.357Z,193.93
2019-06-10T14:07:45.597Z,193.20
2019-06-10T14:11:55.954Z,191.27
2019-06-10T14:16:07.598Z,189.67
2019-06-10T14:20:18.733Z,196.27
2019-06-10T14:24:28.978Z,194.02
2019-06-10T14:28:41.767Z,196.95
2019-06-10T14:32:53.246Z,189.87
2019-06-10T14:37:03.747Z,192.32
2019-06-10T14:41:14.341Z,196.57
2019-06-10T14:45:24.745Z,196.93
2019-06-10T14:49:35.076Z,191.77
2019-06-10T14:53:45.776Z,192.05
2019-06-10T14:57:56.085Z,190.53
2019-06-10T15:02:07.464Z,192.62
2019-06-10T15:06:18.072Z,188.32
2019-06-10T15:10:28.274Z,189.50
2019-06-10T15:14:38.560Z,189.50
2019-06-10T15:18:48.855Z,193.68
2019-06-10T15:22:59.244Z,198.93
2019-06-10T15:27:15.949Z,196.82
2019-06-10T15:31:21.328Z,190.92
2019-06-10T15:35:32.762Z,192.40
2019-06-10T15:39:43.293Z,191.35
2019-06-10T15:43:53.746Z,192.82
2019-06-10T15:48:04.211Z,195.70
2019-06-10T15:52:18.410Z,196.95
2019-06-10T15:56:38.702Z,197.32
2019-06-10T16:00:42.403Z,192.47
2019-06-10T16:04:52.845Z,204.97
2019-06-10T16:09:03.403Z,195.38
2019-06-10T16:13:14.518Z,200.78
2019-06-10T16:17:25.110Z,189.95
2019-06-10T16:21:35.837Z,192.43
2019-06-10T16:25:46.500Z,193.25
2019-06-10T16:29:57.405Z,197.95
2019-06-10T16:34:07.778Z,196.57
2019-06-10T16:38:19.104Z,197.40
2019-06-10T16:42:29.459Z,198.25
2019-06-10T16:46:39.928Z,194.47
2019-06-10T16:50:53.861Z,196.65
2019-06-10T16:55:02.609Z,198.38
2019-06-10T16:59:13.300Z,194.90
2019-06-10T17:03:26.576Z,197.82
2019-06-10T17:07:35.939Z,198.70
2019-06-10T17:11:46.423Z,189.85
2019-06-10T17:15:57.273Z,198.93
2019-06-10T17:20:10.064Z,196.40
2019-06-10T17:24:21.681Z,198.68
2019-06-10T17:28:36.370Z,196.57
2019-06-10T17:32:44.337Z,195.07
2019-06-10T17:36:54.706Z,198.20
2019-06-10T17:41:05.093Z,194.47
2019-06-10T17:45:15.723Z,195.30
2019-06-10T17:49:27.436Z,199.05
2019-06-10T17:53:38.016Z,190.03
2019-06-10T17:57:48.227Z,192.45
2019-06-10T18:01:58.449Z,194.37
2019-06-10T18:06:08.929Z,191.60
2019-06-10T18:10:22.278Z,198.77
2019-06-10T18:14:33.308Z,194.22
2019-06-10T18:18:44.672Z,194.30
2019-06-10T18:22:54.873Z,191.80
2019-06-10T18:27:05.141Z,196.22
2019-06-10T18:31:18.550Z,201.30
2019-06-10T18:35:27.853Z,194.28
2019-06-10T18:39:38.367Z,191.37
2019-06-10T18:43:49.252Z,192.43
2019-06-10T18:48:00.009Z,195.80
2019-06-10T18:52:12.719Z,196.35
2019-06-10T18:56:23.172Z,192.62
2019-06-10T19:00:51.523Z,196.22
2019-06-10T19:04:46.403Z,194.37
2019-06-10T19:08:56.834Z,192.92
2019-06-10T19:13:07.172Z,211.37
2019-06-10T19:17:17.583Z,188.07
2019-06-10T19:21:30.095Z,186.75
2019-06-10T19:25:44.321Z,195.70
2019-06-10T19:29:54.914Z,189.60
2019-06-10T19:34:04.511Z,210.60
2019-06-10T19:38:16.587Z,214.57
2019-06-10T19:42:26.926Z,215.50
2019-06-10T19:46:37.757Z,190.85
2019-06-10T19:50:50.647Z,190.32
2019-06-10T19:55:02.525Z,189.62
2019-06-10T19:59:12.954Z,185.82
2019-06-10T20:03:23.529Z,186.73
2019-06-10T20:07:34.026Z,188.78
2019-06-10T20:11:47.260Z,187.97
2019-06-10T20:15:56.284Z,185.22
2019-06-10T20:20:07.560Z,186.32
2019-06-10T20:24:17.892Z,187.77
2019-06-10T20:28:28.149Z,191.73
2019-06-10T20:32:41.544Z,191.90
2019-06-10T20:36:50.651Z,187.00
2019-06-10T20:41:02.673Z,191.95
2019-06-10T20:45:13.578Z,192.77
2019-06-10T20:49:23.995Z,193.28
2019-06-10T20:53:34.323Z,201.60
2019-06-10T20:57:54.939Z,194.60
2019-06-10T21:01:56.640Z,190.95
2019-06-10T21:06:06.952Z,191.90
2019-06-10T21:10:22.234Z,197.40
2019-06-10T21:14:33.080Z,196.32
2019-06-10T21:18:46.843Z,193.60
2019-06-10T21:22:55.572Z,198.13
2019-06-10T21:27:06.280Z,228.37
2019-06-10T21:31:17.338Z,190.85
2019-06-10T21:35:27.695Z,196.53
2019-06-10T21:39:38.243Z,197.13
2019-06-10T21:43:52.803Z,196.02
2019-06-10T21:48:02.304Z,188.65
2019-06-10T21:52:13.014Z,190.32
2019-06-10T21:56:23.327Z,194.90
2019-06-10T22:00:52.859Z,189.97
2019-06-10T22:04:55.601Z,195.03
2019-06-10T22:09:07.246Z,189.13
2019-06-10T22:13:17.548Z,187.15
2019-06-10T22:17:27.871Z,187.92
2019-06-10T22:21:38.254Z,190.43
2019-06-10T22:25:48.799Z,191.18
2019-06-10T22:29:59.077Z,184.97
2019-06-10T22:34:09.580Z,185.93
2019-06-10T22:38:22.060Z,190.45
2019-06-10T22:42:32.790Z,186.47
2019-06-10T22:46:43.074Z,186.62
2019-06-10T22:50:53.367Z,187.00
2019-06-10T22:55:08.686Z,182.97
2019-06-10T22:59:18.973Z,183.70
2019-06-10T23:03:29.216Z,183.78
2019-06-10T23:07:39.555Z,187.70
2019-06-10T23:11:51.144Z,189.55
2019-06-10T23:16:02.566Z,204.68
2019-06-10T23:20:13.053Z,198.17
2019-06-10T23:24:23.492Z,189.20
2019-06-10T23:28:33.832Z,190.73
2019-06-10T23:32:44.225Z,185.35
2019-06-10T23:36:56.592Z,186.57
2019-06-10T23:41:06.402Z,189.22
2019-06-10T23:45:16.595Z,189.87
2019-06-10T23:49:26.927Z,185.52
2019-06-10T23:53:37.158Z,190.45
2019-06-10T23:57:47.452Z,188.75
